createdAt,value
2018-06-04T00:01:12.618Z,70.90
2018-06-04T00:03:40.882Z,71.30
2018-06-04T00:06:08.999Z,71.90
2018-06-04T00:08:37.224Z,71.50
2018-06-04T00:11:05.328Z,71.70
2018-06-04T00:13:33.551Z,71.40
2018-06-04T00:16:01.807Z,71.30
2018-06-04T00:18:29.932Z,71.50
2018-06-04T00:20:58.103Z,72.70
2018-06-04T00:23:26.327Z,72.70
2018-06-04T00:25:54.569Z,72.60
2018-06-04T00:28:22.802Z,72.60
2018-06-04T00:30:51.033Z,72.60
2018-06-04T00:33:19.114Z,72.70
2018-06-04T00:35:47.355Z,73.50
2018-06-04T00:38:15.499Z,73.80
2018-06-04T00:40:43.606Z,73.80
2018-06-04T00:43:11.817Z,73.70
2018-06-04T00:45:39.993Z,73.80
2018-06-04T00:48:08.124Z,74.00
2018-06-04T00:50:36.612Z,73.80
2018-06-04T00:53:04.864Z,73.10
2018-06-04T00:55:48.807Z,73.10
2018-06-04T00:58:16.938Z,72.80
2018-06-04T01:00:45.098Z,74.00
2018-06-04T01:03:13.263Z,74.40
2018-06-04T01:05:41.357Z,74.00
2018-06-04T01:08:09.510Z,74.50
2018-06-04T01:10:37.682Z,74.80
2018-06-04T01:13:05.855Z,74.10
2018-06-04T01:15:33.956Z,74.70
2018-06-04T01:18:02.109Z,75.10
2018-06-04T01:20:30.344Z,75.50
2018-06-04T01:22:58.533Z,75.30
2018-06-04T01:25:26.741Z,75.10
2018-06-04T01:30:22.980Z,75.90
2018-06-04T01:35:19.129Z,76.20
2018-06-04T01:37:47.295Z,75.90
2018-06-04T01:42:43.541Z,75.90
2018-06-04T01:45:11.685Z,75.60
2018-06-04T01:47:39.836Z,75.30
2018-06-04T01:50:08.001Z,75.90
2018-06-04T01:52:36.052Z,75.90
2018-06-04T01:55:04.272Z,75.50
2018-06-04T01:57:32.525Z,75.60
2018-06-04T02:00:00.720Z,75.70
2018-06-04T02:02:28.887Z,75.50
2018-06-04T02:04:57.029Z,76.30
2018-06-04T02:07:25.173Z,75.70
2018-06-04T02:09:53.449Z,76.20
2018-06-04T02:17:17.775Z,76.20
2018-06-04T02:19:45.911Z,76.90
2018-06-04T02:22:14.074Z,77.30
2018-06-04T02:24:42.191Z,77.00
2018-06-04T02:27:10.310Z,77.00
2018-06-04T02:29:38.489Z,77.00
2018-06-04T02:32:06.650Z,77.10
2018-06-04T02:34:34.787Z,77.50
2018-06-04T02:37:03.007Z,77.70
2018-06-04T02:39:31.161Z,77.40
2018-06-04T02:41:59.451Z,77.20
2018-06-04T02:44:27.699Z,77.60
2018-06-04T02:46:55.855Z,77.60
2018-06-04T02:49:23.958Z,77.00
2018-06-04T02:51:52.118Z,76.40
2018-06-04T02:56:48.396Z,76.00
2018-06-04T02:59:16.580Z,76.60
2018-06-04T03:01:44.696Z,77.20
2018-06-04T03:04:12.848Z,76.90
2018-06-04T03:06:40.977Z,76.40
2018-06-04T03:09:09.125Z,76.40
2018-06-04T03:11:37.313Z,76.90
2018-06-04T03:14:05.878Z,77.40
2018-06-04T03:16:34.054Z,77.80
2018-06-04T03:19:02.224Z,77.70
2018-06-04T03:21:30.348Z,77.20
2018-06-04T03:23:58.499Z,77.50
2018-06-04T03:26:26.658Z,78.30
2018-06-04T03:28:54.757Z,78.70
2018-06-04T03:31:22.874Z,78.20
2018-06-04T03:33:51.028Z,78.70
2018-06-04T03:36:19.147Z,78.50
2018-06-04T03:38:47.354Z,79.30
2018-06-04T03:41:15.669Z,78.50
2018-06-04T03:43:43.809Z,78.80
2018-06-04T03:46:12.027Z,78.60
2018-06-04T03:48:40.173Z,78.20
2018-06-04T03:51:08.432Z,78.90
2018-06-04T03:53:36.504Z,78.30
2018-06-04T03:56:04.640Z,78.10
2018-06-04T04:00:54.379Z,78.10
2018-06-04T04:03:22.509Z,77.90
2018-06-04T04:05:50.611Z,78.20
2018-06-04T04:08:18.732Z,79.00
2018-06-04T04:10:46.856Z,78.90
2018-06-04T04:13:15.020Z,79.10
2018-06-04T04:15:43.208Z,78.30
2018-06-04T04:18:11.423Z,79.60
2018-06-04T04:20:39.658Z,78.30
2018-06-04T04:23:07.852Z,78.30
2018-06-04T04:25:35.928Z,78.60
2018-06-04T04:28:04.141Z,78.10
2018-06-04T04:33:00.354Z,78.50
2018-06-04T04:35:28.744Z,78.50
2018-06-04T04:40:24.894Z,78.40
2018-06-04T04:45:21.084Z,77.90
2018-06-04T04:47:49.231Z,77.70
2018-06-04T04:50:17.437Z,77.90
2018-06-04T04:52:45.611Z,78.00
2018-06-04T04:55:13.744Z,77.20
2018-06-04T04:57:44.095Z,77.20
2018-06-04T05:00:22.452Z,77.00
2018-06-04T05:02:50.764Z,77.20
2018-06-04T05:05:18.977Z,77.10
2018-06-04T05:07:47.248Z,76.50
2018-06-04T05:10:15.419Z,77.20
2018-06-04T05:12:43.498Z,76.40
2018-06-04T05:15:11.617Z,76.60
2018-06-04T05:17:39.792Z,76.30
2018-06-04T05:20:07.959Z,76.40
2018-06-04T05:22:36.148Z,75.50
2018-06-04T05:25:04.276Z,75.70
2018-06-04T05:27:32.432Z,75.80
2018-06-04T05:30:00.567Z,75.30
2018-06-04T05:32:28.766Z,74.40
2018-06-04T05:34:57.116Z,75.10
2018-06-04T05:37:25.351Z,74.80
2018-06-04T05:39:53.468Z,74.20
2018-06-04T05:42:21.794Z,73.80
2018-06-04T05:44:49.873Z,72.40
2018-06-04T05:47:18.043Z,71.80
2018-06-04T05:52:14.441Z,72.30
2018-06-04T05:54:42.613Z,71.10
2018-06-04T05:57:10.745Z,70.50
2018-06-04T05:59:40.387Z,69.20
2018-06-04T06:02:08.552Z,70.00
2018-06-04T06:04:36.704Z,69.70
2018-06-04T06:07:04.887Z,68.90
2018-06-04T06:09:33.102Z,68.00
2018-06-04T06:12:01.327Z,69.40
2018-06-04T06:14:29.541Z,68.00
2018-06-04T06:16:57.636Z,67.10
2018-06-04T06:19:25.780Z,67.10
2018-06-04T06:21:53.926Z,66.50
2018-06-04T06:24:22.045Z,66.30
2018-06-04T06:26:50.280Z,66.60
2018-06-04T06:29:18.399Z,65.40
2018-06-04T06:31:46.595Z,65.00
2018-06-04T06:34:14.757Z,64.10
2018-06-04T06:36:42.926Z,65.00
2018-06-04T06:39:12.080Z,64.10
2018-06-04T06:41:40.293Z,63.20
2018-06-04T06:44:08.937Z,64.10
2018-06-04T06:46:37.070Z,64.20
2018-06-04T06:49:05.302Z,64.20
2018-06-04T06:51:33.532Z,64.20
2018-06-04T06:56:29.862Z,63.80
2018-06-04T06:58:57.992Z,64.50
2018-06-04T07:01:26.140Z,64.50
2018-06-04T07:03:54.310Z,64.50
2018-06-04T07:06:22.489Z,64.60
2018-06-04T07:08:50.769Z,62.90
2018-06-04T07:13:46.984Z,61.50
2018-06-04T07:16:15.170Z,61.00
2018-06-04T07:18:43.442Z,61.50
2018-06-04T07:21:11.620Z,60.50
2018-06-04T07:23:39.791Z,60.10
2018-06-04T07:26:07.907Z,59.80
2018-06-04T07:28:36.125Z,59.40
2018-06-04T07:31:04.258Z,59.20
2018-06-04T07:36:11.028Z,59.50
2018-06-04T07:38:40.007Z,58.40
2018-06-04T07:41:08.173Z,57.80
2018-06-04T07:43:36.320Z,57.40
2018-06-04T07:46:05.045Z,57.50
2018-06-04T07:48:33.210Z,56.80
2018-06-04T07:51:01.379Z,56.20
2018-06-04T07:53:29.524Z,57.10
2018-06-04T07:55:57.752Z,58.30
2018-06-04T07:58:25.971Z,56.40
2018-06-04T08:00:54.099Z,56.40
2018-06-04T08:03:22.259Z,56.40
2018-06-04T08:05:50.488Z,56.00
2018-06-04T08:08:18.659Z,56.50
2018-06-04T08:10:46.882Z,55.60
2018-06-04T08:13:14.944Z,54.90
2018-06-04T08:15:43.093Z,54.80
2018-06-04T08:18:11.196Z,54.40
2018-06-04T08:20:39.328Z,54.20
2018-06-04T08:23:07.479Z,54.60
2018-06-04T08:25:35.581Z,53.00
2018-06-04T08:28:03.731Z,53.20
2018-06-04T08:30:31.825Z,53.60
2018-06-04T08:32:59.912Z,53.30
2018-06-04T08:35:28.219Z,53.00
2018-06-04T08:37:56.373Z,52.40
2018-06-04T08:40:24.493Z,52.40
2018-06-04T08:42:52.630Z,52.50
2018-06-04T08:47:48.847Z,52.20
2018-06-04T08:50:17.028Z,51.60
2018-06-04T08:52:45.137Z,51.50
2018-06-04T08:55:13.346Z,50.90
2018-06-04T08:57:41.511Z,50.50
2018-06-04T09:00:09.663Z,50.30
2018-06-04T09:02:37.845Z,50.10
2018-06-04T09:05:05.962Z,50.80
2018-06-04T09:07:34.128Z,50.40
2018-06-04T09:10:02.273Z,50.30
2018-06-04T09:12:30.412Z,50.50
2018-06-04T09:14:58.546Z,50.70
2018-06-04T09:17:26.689Z,50.10
2018-06-04T09:19:54.871Z,49.70
2018-06-04T09:22:23.111Z,50.90
2018-06-04T09:24:51.323Z,49.80
2018-06-04T09:27:19.468Z,50.10
2018-06-04T09:29:47.642Z,50.40
2018-06-04T09:32:15.828Z,50.00
2018-06-04T09:34:43.992Z,49.10
2018-06-04T09:37:12.237Z,49.30
2018-06-04T09:39:40.436Z,48.00
2018-06-04T09:42:08.620Z,47.30
2018-06-04T09:44:36.801Z,47.10
2018-06-04T09:47:04.944Z,47.00
2018-06-04T09:49:33.245Z,46.80
2018-06-04T09:52:01.383Z,48.20
2018-06-04T09:54:29.512Z,46.90
2018-06-04T09:56:57.605Z,45.40
2018-06-04T10:04:25.534Z,45.50
2018-06-04T10:06:53.700Z,42.10
2018-06-04T10:09:21.865Z,37.90
2018-06-04T10:11:49.991Z,38.80
2018-06-04T10:14:18.120Z,38.80
2018-06-04T10:16:46.324Z,39.20
2018-06-04T10:19:14.640Z,39.50
2018-06-04T10:24:10.883Z,41.70
2018-06-04T10:26:38.996Z,41.20
2018-06-04T10:29:07.151Z,40.60
2018-06-04T10:31:35.296Z,40.70
2018-06-04T10:34:03.405Z,39.90
2018-06-04T10:36:31.571Z,39.50
2018-06-04T10:38:59.696Z,39.80
2018-06-04T10:41:27.850Z,38.10
2018-06-04T10:43:55.988Z,40.80
2018-06-04T10:46:24.115Z,41.80
2018-06-04T10:48:52.229Z,40.40
2018-06-04T10:51:20.424Z,41.90
2018-06-04T10:53:48.569Z,41.50
2018-06-04T10:56:17.251Z,40.70
2018-06-04T10:58:45.482Z,38.80
2018-06-04T11:03:41.809Z,40.30
2018-06-04T11:06:09.936Z,40.30
2018-06-04T11:08:38.085Z,40.00
2018-06-04T11:11:06.439Z,40.60
2018-06-04T11:13:34.605Z,39.70
2018-06-04T11:16:02.715Z,38.50
2018-06-04T11:18:30.899Z,38.80
2018-06-04T11:20:59.043Z,38.10
2018-06-04T11:25:56.234Z,35.00
2018-06-04T11:28:24.291Z,35.70
2018-06-04T11:33:20.544Z,36.70
2018-06-04T11:35:48.672Z,35.80
2018-06-04T11:38:16.853Z,37.30
2018-06-04T11:40:45.017Z,37.00
2018-06-04T11:43:13.132Z,36.00
2018-06-04T11:45:41.276Z,35.30
2018-06-04T11:50:37.507Z,36.40
2018-06-04T11:53:05.679Z,35.30
2018-06-04T11:55:33.815Z,35.30
2018-06-04T11:58:01.920Z,35.20
2018-06-04T12:00:30.099Z,34.50
2018-06-04T12:02:58.259Z,33.50
2018-06-04T12:05:27.159Z,32.00
2018-06-04T12:07:55.323Z,32.30
2018-06-04T12:10:23.463Z,31.60
2018-06-04T12:12:51.613Z,32.10
2018-06-04T12:15:19.770Z,33.00
2018-06-04T12:17:47.958Z,33.10
2018-06-04T12:20:16.073Z,32.60
2018-06-04T12:22:44.243Z,32.80
2018-06-04T12:25:12.352Z,33.50
2018-06-04T12:30:08.655Z,33.70
2018-06-04T12:32:36.811Z,34.30
2018-06-04T12:35:05.048Z,34.50
2018-06-04T12:37:33.259Z,35.10
2018-06-04T12:40:01.433Z,35.70
2018-06-04T12:42:29.667Z,35.80
2018-06-04T12:47:25.934Z,31.50
2018-06-04T12:52:22.200Z,32.20
2018-06-04T12:54:50.314Z,31.70
2018-06-04T12:57:18.487Z,31.70
2018-06-04T12:59:46.603Z,31.70
2018-06-04T13:02:14.695Z,32.40
2018-06-04T13:04:42.915Z,33.40
2018-06-04T13:07:10.984Z,32.60
2018-06-04T13:09:39.189Z,32.80
2018-06-04T13:12:07.338Z,32.70
2018-06-04T13:14:35.493Z,32.00
2018-06-04T13:19:31.796Z,31.70
2018-06-04T13:21:59.927Z,32.50
2018-06-04T13:24:28.082Z,31.90
2018-06-04T13:29:24.203Z,32.30
2018-06-04T13:31:52.401Z,32.00
2018-06-04T13:36:48.594Z,32.10
2018-06-04T13:39:16.751Z,31.00
2018-06-04T13:41:44.946Z,32.00
2018-06-04T13:44:13.095Z,31.80
2018-06-04T13:46:41.584Z,33.20
2018-06-04T13:49:09.748Z,31.70
2018-06-04T13:51:38.018Z,32.00
2018-06-04T13:54:06.289Z,32.40
2018-06-04T13:56:34.564Z,32.00
2018-06-04T13:59:02.864Z,32.00
2018-06-04T14:01:31.059Z,30.70
2018-06-04T14:03:59.228Z,32.00
2018-06-04T14:06:27.338Z,31.20
2018-06-04T14:08:55.451Z,30.60
2018-06-04T14:11:23.619Z,31.00
2018-06-04T14:13:51.815Z,30.80
2018-06-04T14:16:19.979Z,30.80
2018-06-04T14:18:48.155Z,30.60
2018-06-04T14:21:16.284Z,30.60
2018-06-04T14:23:44.509Z,30.90
2018-06-04T14:26:12.653Z,30.90
2018-06-04T14:28:40.763Z,31.00
2018-06-04T14:31:08.935Z,31.50
2018-06-04T14:33:37.308Z,30.80
2018-06-04T14:36:05.492Z,30.60
2018-06-04T14:38:33.621Z,30.40
2018-06-04T14:41:01.739Z,31.20
2018-06-04T14:45:57.957Z,30.00
2018-06-04T14:48:26.246Z,29.50
2018-06-04T14:53:22.420Z,29.80
2018-06-04T14:55:50.609Z,29.70
2018-06-04T14:58:18.732Z,29.70
2018-06-04T15:00:46.898Z,29.50
2018-06-04T15:03:14.992Z,29.60
2018-06-04T15:05:43.115Z,30.50
2018-06-04T15:08:14.113Z,28.90
2018-06-04T15:10:42.340Z,28.70
2018-06-04T15:13:10.439Z,28.70
2018-06-04T15:15:38.591Z,29.30
2018-06-04T15:18:06.788Z,28.50
2018-06-04T15:23:03.000Z,28.70
2018-06-04T15:25:31.172Z,28.90
2018-06-04T15:27:59.324Z,28.70
2018-06-04T15:30:27.446Z,28.50
2018-06-04T15:32:55.626Z,28.70
2018-06-04T15:35:23.796Z,28.80
2018-06-04T15:37:52.102Z,29.30
2018-06-04T15:40:20.230Z,28.20
2018-06-04T15:42:48.395Z,28.70
2018-06-04T15:45:16.531Z,28.70
2018-06-04T15:47:44.734Z,29.00
2018-06-04T15:50:12.923Z,28.50
2018-06-04T15:52:41.092Z,28.10
2018-06-04T15:57:37.319Z,28.80
2018-06-04T16:00:05.596Z,28.60
2018-06-04T16:05:01.892Z,29.30
2018-06-04T16:07:30.063Z,28.90
2018-06-04T16:09:58.273Z,28.90
2018-06-04T16:12:26.476Z,28.90
2018-06-04T16:17:22.697Z,28.90
2018-06-04T16:19:50.836Z,29.10
2018-06-04T16:22:19.043Z,29.50
2018-06-04T16:24:47.228Z,30.40
2018-06-04T16:27:15.431Z,30.70
2018-06-04T16:29:43.579Z,30.10
2018-06-04T16:34:39.964Z,28.70
2018-06-04T16:37:08.163Z,28.90
2018-06-04T16:39:36.400Z,28.90
2018-06-04T16:42:04.736Z,29.60
2018-06-04T16:44:32.928Z,29.70
2018-06-04T16:47:01.092Z,29.90
2018-06-04T16:49:29.355Z,30.00
2018-06-04T16:52:00.017Z,29.80
2018-06-04T16:54:28.135Z,30.10
2018-06-04T16:56:56.262Z,30.40
2018-06-04T16:59:24.544Z,30.50
2018-06-04T17:01:52.636Z,30.80
2018-06-04T17:04:20.807Z,30.80
2018-06-04T17:06:49.085Z,30.80
2018-06-04T17:09:17.263Z,31.90
2018-06-04T17:11:45.504Z,31.30
2018-06-04T17:14:13.633Z,31.40
2018-06-04T17:16:41.825Z,31.10
2018-06-04T17:19:09.994Z,30.90
2018-06-04T17:21:38.174Z,31.00
2018-06-04T17:24:06.440Z,30.80
2018-06-04T17:26:34.585Z,30.80
2018-06-04T17:29:02.748Z,31.20
2018-06-04T17:31:30.828Z,31.60
2018-06-04T17:33:58.994Z,31.60
2018-06-04T17:36:27.335Z,31.70
2018-06-04T17:38:55.497Z,31.70
2018-06-04T17:41:23.697Z,32.00
2018-06-04T17:43:51.847Z,32.50
2018-06-04T17:46:20.077Z,32.80
2018-06-04T17:48:48.292Z,32.80
2018-06-04T17:51:16.476Z,33.50
2018-06-04T17:53:44.669Z,33.70
2018-06-04T17:56:12.832Z,33.30
2018-06-04T17:58:40.991Z,33.40
2018-06-04T18:01:09.476Z,34.10
2018-06-04T18:03:37.835Z,33.60
2018-06-04T18:06:06.169Z,33.00
2018-06-04T18:08:34.294Z,32.60
2018-06-04T18:11:02.510Z,32.50
2018-06-04T18:13:30.896Z,32.20
2018-06-04T18:15:59.105Z,32.20
2018-06-04T18:18:27.711Z,32.40
2018-06-04T18:20:56.013Z,32.60
2018-06-04T18:23:24.218Z,32.80
2018-06-04T18:25:52.524Z,32.70
2018-06-04T18:28:20.779Z,33.00
2018-06-04T18:30:49.049Z,33.20
2018-06-04T18:33:17.342Z,33.60
2018-06-04T18:35:45.617Z,33.50
2018-06-04T18:38:13.936Z,34.10
2018-06-04T18:40:42.228Z,34.10
2018-06-04T18:43:10.509Z,34.10
2018-06-04T18:48:06.960Z,34.40
2018-06-04T18:50:35.208Z,34.80
2018-06-04T18:53:03.423Z,34.80
2018-06-04T18:55:31.692Z,34.90
2018-06-04T19:00:28.155Z,35.20
2018-06-04T19:05:24.582Z,35.60
2018-06-04T19:07:52.826Z,35.80
2018-06-04T19:10:21.058Z,35.70
2018-06-04T19:12:49.280Z,35.80
2018-06-04T19:15:17.604Z,36.10
2018-06-04T19:17:46.442Z,36.50
2018-06-04T19:20:14.877Z,37.00
2018-06-04T19:22:43.141Z,36.80
2018-06-04T19:25:11.467Z,36.90
2018-06-04T19:27:39.802Z,37.10
2018-06-04T19:30:08.115Z,37.20
2018-06-04T19:32:36.408Z,37.30
2018-06-04T19:35:05.365Z,37.50
2018-06-04T19:37:34.273Z,37.60
2018-06-04T19:40:02.854Z,37.90
2018-06-04T19:42:31.066Z,38.20
2018-06-04T19:44:59.332Z,39.10
2018-06-04T19:47:27.582Z,39.40
2018-06-04T19:49:56.173Z,39.70
2018-06-04T19:57:20.825Z,40.10
2018-06-04T20:02:17.298Z,40.10
2018-06-04T20:04:45.572Z,41.00
2018-06-04T20:07:13.845Z,42.30
2018-06-04T20:09:42.056Z,42.20
2018-06-04T20:12:10.341Z,42.90
2018-06-04T20:14:38.639Z,43.60
2018-06-04T20:17:07.006Z,44.30
2018-06-04T20:19:35.360Z,44.40
2018-06-04T20:22:03.571Z,44.70
2018-06-04T20:27:00.340Z,45.10
2018-06-04T20:29:33.501Z,45.40
2018-06-04T20:32:04.169Z,45.80
2018-06-04T20:34:33.068Z,45.70
2018-06-04T20:39:34.998Z,46.40
2018-06-04T20:42:03.570Z,46.40
2018-06-04T20:44:32.002Z,47.00
2018-06-04T20:47:00.446Z,47.00
2018-06-04T20:49:28.760Z,47.50
2018-06-04T20:51:57.120Z,47.30
2018-06-04T20:54:25.325Z,48.00
2018-06-04T20:56:53.555Z,47.90
2018-06-04T20:59:21.796Z,48.20
2018-06-04T21:01:50.048Z,48.10
2018-06-04T21:04:18.370Z,48.10
2018-06-04T21:06:46.637Z,48.10
2018-06-04T21:09:15.013Z,48.10
2018-06-04T21:11:43.366Z,48.10
2018-06-04T21:14:11.576Z,48.20
2018-06-04T21:16:42.777Z,48.00
2018-06-04T21:19:11.067Z,48.50
2018-06-04T21:21:39.408Z,49.20
2018-06-04T21:24:07.692Z,49.60
2018-06-04T21:26:36.018Z,49.50
2018-06-04T21:29:04.494Z,49.50
2018-06-04T21:36:29.151Z,50.30
2018-06-04T21:38:57.420Z,50.60
2018-06-04T21:41:25.687Z,50.60
2018-06-04T21:43:53.973Z,50.50
2018-06-04T21:46:22.158Z,50.80
2018-06-04T21:48:50.390Z,51.10
2018-06-04T21:53:46.766Z,51.70
2018-06-04T21:56:15.179Z,51.60
2018-06-04T21:58:43.400Z,51.90
2018-06-04T22:01:11.651Z,51.80
2018-06-04T22:03:39.973Z,51.80
2018-06-04T22:06:08.249Z,51.90
2018-06-04T22:08:36.411Z,52.10
2018-06-04T22:11:04.680Z,53.10
2018-06-04T22:13:33.015Z,52.80
2018-06-04T22:16:01.212Z,53.10
2018-06-04T22:18:29.354Z,53.00
2018-06-04T22:20:57.576Z,52.90
2018-06-04T22:23:25.750Z,52.90
2018-06-04T22:25:53.916Z,52.80
2018-06-04T22:28:22.011Z,53.10
2018-06-04T22:30:50.154Z,53.30
2018-06-04T22:33:18.298Z,53.70
2018-06-04T22:35:46.548Z,54.20
2018-06-04T22:38:14.837Z,54.30
2018-06-04T22:43:11.053Z,54.60
2018-06-04T22:45:39.175Z,54.60
2018-06-04T22:48:07.299Z,55.20
2018-06-04T22:50:35.469Z,55.80
2018-06-04T22:53:03.621Z,55.70
2018-06-04T22:55:31.793Z,55.90
2018-06-04T22:57:59.996Z,56.10
2018-06-04T23:00:34.464Z,56.30
2018-06-04T23:05:30.706Z,55.50
2018-06-04T23:07:58.853Z,55.60
2018-06-04T23:10:26.943Z,56.10
2018-06-04T23:15:23.219Z,56.40
2018-06-04T23:17:51.380Z,56.20
2018-06-04T23:20:19.517Z,56.20
2018-06-04T23:22:47.649Z,56.50
2018-06-04T23:25:15.835Z,57.00
2018-06-04T23:27:43.958Z,56.90
2018-06-04T23:30:12.137Z,56.90
2018-06-04T23:32:40.273Z,57.60
2018-06-04T23:35:08.549Z,57.60
2018-06-04T23:37:36.710Z,58.00
2018-06-04T23:40:05.253Z,58.30
2018-06-04T23:42:33.404Z,58.20
2018-06-04T23:45:01.578Z,58.20
2018-06-04T23:47:29.766Z,58.30
2018-06-04T23:49:57.865Z,58.10
2018-06-04T23:52:25.985Z,58.40
2018-06-04T23:54:54.103Z,58.40
2018-06-04T23:57:22.202Z,58.60
2018-06-04T23:59:50.333Z,59.20
